This demonstration page uses our WeatherBlox Daily Observations layout. Learn more.

Hourly Observations for August 9, 2016

Temp ( °F °C ) Dew Point ( °F °C ) Humidity (%) Winds ( mph kmh ) Pressure ( in mb ) Visibility ( mi km ) Precip ( " mm )
12:54 am 00:54 Clear 74 23.3 70 21.1 88 88 S 7 11 29.88 1012 10 16.0934 0 0
1:54 am 01:54 Partly Cloudy 73 22.8 70 21.1 90 90 Calm 29.91 1013 10 16.0934 0 0
2:54 am 02:54 Clear 71 21.7 69 20.6 94 94 ESE 3 6 29.91 1013 9 14.48406 0 0
3:54 am 03:54 Clear with Mist and Fog 70 21.1 69 20.6 97 97 SSE 6 9 29.9 1013 6 9.65604 0 0
4:54 am 04:54 Mostly Cloudy with Mist and Fog 71 21.7 69 20.6 94 94 S 5 7 29.89 1012 6 9.65604 0 0
5:54 am 05:54 Clear with Mist and Fog 70 21.1 68 20 93 93 S 6 9 29.89 1012 4 6.43736 0 0
6:54 am 06:54 Partly Cloudy with Mist and Fog 70 21.1 69 20.6 97 97 S 3 6 29.9 1013 3 4.82802 0 0
7:54 am 07:54 Sunny with Mist and Fog 72 22.2 71 21.7 97 97 SSE 6 9 29.9 1013 4 6.43736 0 0
8:54 am 08:54 Sunny 77 25 72 22.2 85 85 SSE 8 13 29.91 1013 10 16.0934 0 0
9:54 am 09:54 Sunny 81 27.2 73 22.8 77 77 SSW 8 13 29.91 1013 10 16.0934 0 0
10:54 am 10:54 Sunny 84 28.9 74 23.3 72 72 SSW 6 9 29.9 1013 10 16.0934 0 0
11:54 am 11:54 Sunny 86 30 75 23.9 70 70 S 7 11 29.89 1012 10 16.0934 0 0
12:54 pm 12:54 Mostly Cloudy 89 31.7 74 23.3 61 61 SSW 7 11 29.88 1012 10 16.0934 0 0
1:54 pm 13:54 Mostly Cloudy 89 31.7 74 23.3 61 61 S 10 17 29.89 1012 10 16.0934 0 0
2:54 pm 14:54 Mostly Cloudy 91 32.8 76 24.4 61 61 SSE 13 20 29.88 1012 10 16.0934 0 0
3:54 pm 15:54 Mostly Cloudy 91 32.8 76 24.4 61 61 SE 10 17 29.87 1012 10 16.0934 0 0
4:54 pm 16:54 Partly Cloudy 89 31.7 75 23.9 63 63 SE 13 20 29.87 1012 10 16.0934 0 0
5:54 pm 17:54 Partly Cloudy 90 32.2 77 25 66 66 SE 14 22 29.86 1011 10 16.0934 0 0
6:54 pm 18:54 Sunny 89 31.7 76 24.4 65 65 SE 14 22 29.86 1011 10 16.0934 0 0
7:54 pm 19:54 Sunny 87 30.6 76 24.4 70 70 ESE 13 20 29.86 1011 10 16.0934 0 0
8:54 pm 20:54 Clear 84 28.9 76 24.4 77 77 SE 9 15 29.87 1012 10 16.0934 0 0
9:54 pm 21:54 Clear 84 28.9 76 24.4 77 77 SE 12 19 29.89 1012 10 16.0934 0 0
10:54 pm 22:54 Clear 83 28.3 75 23.9 77 77 SE 13 20 29.9 1013 10 16.0934 0 0
11:54 pm 23:54 Clear 82 27.8 75 23.9 79 79 SSE 10 17 29.91 1013 10 16.0934 0 0

Powered by AerisWeather